sensor_id;sensor_type;location;lat;lon;timestamp;P1;durP1;ratioP1;P2;durP2;ratioP2
80842;SDS011;70255;53.686;10.778;2023-05-23T00:01:53;9.37;;;5.33;;
80842;SDS011;70255;53.686;10.778;2023-05-23T00:04:19;6.97;;;4.47;;
80842;SDS011;70255;53.686;10.778;2023-05-23T00:06:44;8.65;;;5.18;;
80842;SDS011;70255;53.686;10.778;2023-05-23T00:09:14;7.13;;;4.68;;
80842;SDS011;70255;53.686;10.778;2023-05-23T00:11:40;6.90;;;5.13;;
80842;SDS011;70255;53.686;10.778;2023-05-23T00:14:09;8.40;;;5.95;;
80842;SDS011;70255;53.686;10.778;2023-05-23T00:16:34;6.13;;;4.95;;
80842;SDS011;70255;53.686;10.778;2023-05-23T00:19:05;7.55;;;4.88;;
80842;SDS011;70255;53.686;10.778;2023-05-23T00:21:30;6.53;;;4.47;;
80842;SDS011;70255;53.686;10.778;2023-05-23T00:23:57;6.20;;;4.38;;
80842;SDS011;70255;53.686;10.778;2023-05-23T00:26:22;5.77;;;4.10;;
80842;SDS011;70255;53.686;10.778;2023-05-23T00:28:48;8.20;;;5.07;;
80842;SDS011;70255;53.686;10.778;2023-05-23T00:31:13;8.87;;;6.40;;
80842;SDS011;70255;53.686;10.778;2023-05-23T00:33:38;10.30;;;6.10;;
80842;SDS011;70255;53.686;10.778;2023-05-23T00:36:03;8.63;;;6.18;;
80842;SDS011;70255;53.686;10.778;2023-05-23T00:38:30;7.68;;;5.70;;
80842;SDS011;70255;53.686;10.778;2023-05-23T00:40:55;7.93;;;5.50;;
80842;SDS011;70255;53.686;10.778;2023-05-23T00:43:20;8.95;;;6.10;;
80842;SDS011;70255;53.686;10.778;2023-05-23T00:45:47;8.10;;;6.40;;
80842;SDS011;70255;53.686;10.778;2023-05-23T00:48:12;7.45;;;5.63;;
80842;SDS011;70255;53.686;10.778;2023-05-23T00:50:38;8.32;;;6.03;;
80842;SDS011;70255;53.686;10.778;2023-05-23T00:53:04;9.00;;;6.05;;
80842;SDS011;70255;53.686;10.778;2023-05-23T00:55:30;6.95;;;5.13;;
80842;SDS011;70255;53.686;10.778;2023-05-23T00:57:55;6.85;;;5.00;;
80842;SDS011;70255;53.686;10.778;2023-05-23T01:00:24;6.63;;;4.97;;
80842;SDS011;70255;53.686;10.778;2023-05-23T01:02:49;8.77;;;6.15;;
80842;SDS011;70255;53.686;10.778;2023-05-23T01:05:18;8.57;;;6.22;;
80842;SDS011;70255;53.686;10.778;2023-05-23T01:07:44;8.52;;;6.18;;
80842;SDS011;70255;53.686;10.778;2023-05-23T01:10:10;9.55;;;6.15;;
80842;SDS011;70255;53.686;10.778;2023-05-23T01:15:20;12.55;;;7.47;;
80842;SDS011;70255;53.686;10.778;2023-05-23T01:17:49;10.55;;;7.38;;
80842;SDS011;70255;53.686;10.778;2023-05-23T01:20:23;9.88;;;5.78;;
80842;SDS011;70255;53.686;10.778;2023-05-23T01:28:10;9.80;;;7.38;;
80842;SDS011;70255;53.686;10.778;2023-05-23T01:30:37;10.95;;;8.13;;
80842;SDS011;70255;53.686;10.778;2023-05-23T01:33:03;11.07;;;7.35;;
80842;SDS011;70255;53.686;10.778;2023-05-23T01:35:29;9.63;;;6.97;;
80842;SDS011;70255;53.686;10.778;2023-05-23T01:37:55;10.63;;;7.50;;
80842;SDS011;70255;53.686;10.778;2023-05-23T01:40:21;9.63;;;7.13;;
80842;SDS011;70255;53.686;10.778;2023-05-23T01:42:47;7.28;;;5.60;;
80842;SDS011;70255;53.686;10.778;2023-05-23T01:45:12;11.88;;;8.70;;
80842;SDS011;70255;53.686;10.778;2023-05-23T01:47:38;13.98;;;9.13;;
80842;SDS011;70255;53.686;10.778;2023-05-23T01:50:04;10.70;;;6.85;;
80842;SDS011;70255;53.686;10.778;2023-05-23T01:52:30;9.45;;;7.22;;
80842;SDS011;70255;53.686;10.778;2023-05-23T01:54:55;10.88;;;7.95;;
80842;SDS011;70255;53.686;10.778;2023-05-23T01:57:21;15.75;;;8.98;;
80842;SDS011;70255;53.686;10.778;2023-05-23T01:59:46;10.93;;;8.50;;
80842;SDS011;70255;53.686;10.778;2023-05-23T02:02:11;11.73;;;7.33;;
80842;SDS011;70255;53.686;10.778;2023-05-23T02:04:37;9.93;;;6.78;;
80842;SDS011;70255;53.686;10.778;2023-05-23T02:07:02;11.00;;;7.37;;
80842;SDS011;70255;53.686;10.778;2023-05-23T02:09:27;7.57;;;5.13;;
80842;SDS011;70255;53.686;10.778;2023-05-23T02:11:53;10.80;;;7.43;;
80842;SDS011;70255;53.686;10.778;2023-05-23T02:14:20;9.02;;;6.45;;
80842;SDS011;70255;53.686;10.778;2023-05-23T02:16:45;8.20;;;5.75;;
80842;SDS011;70255;53.686;10.778;2023-05-23T02:19:10;8.47;;;6.23;;
80842;SDS011;70255;53.686;10.778;2023-05-23T02:21:36;8.63;;;6.43;;
80842;SDS011;70255;53.686;10.778;2023-05-23T02:24:01;9.25;;;6.18;;
80842;SDS011;70255;53.686;10.778;2023-05-23T02:26:27;8.60;;;6.57;;
80842;SDS011;70255;53.686;10.778;2023-05-23T02:28:52;11.63;;;8.33;;
80842;SDS011;70255;53.686;10.778;2023-05-23T02:31:17;9.30;;;6.40;;
80842;SDS011;70255;53.686;10.778;2023-05-23T02:33:43;9.43;;;6.22;;
80842;SDS011;70255;53.686;10.778;2023-05-23T02:36:08;8.60;;;5.73;;
80842;SDS011;70255;53.686;10.778;2023-05-23T02:38:33;8.83;;;6.50;;
80842;SDS011;70255;53.686;10.778;2023-05-23T02:40:58;7.03;;;5.27;;
80842;SDS011;70255;53.686;10.778;2023-05-23T02:43:24;8.25;;;6.22;;
80842;SDS011;70255;53.686;10.778;2023-05-23T02:45:50;10.38;;;5.68;;
80842;SDS011;70255;53.686;10.778;2023-05-23T02:48:15;10.10;;;6.57;;
80842;SDS011;70255;53.686;10.778;2023-05-23T02:50:40;7.93;;;5.50;;
80842;SDS011;70255;53.686;10.778;2023-05-23T02:53:06;8.77;;;6.20;;
80842;SDS011;70255;53.686;10.778;2023-05-23T02:55:31;8.53;;;5.83;;
80842;SDS011;70255;53.686;10.778;2023-05-23T02:57:56;11.17;;;7.80;;
80842;SDS011;70255;53.686;10.778;2023-05-23T03:00:22;9.13;;;6.88;;
80842;SDS011;70255;53.686;10.778;2023-05-23T03:02:48;10.98;;;7.13;;
80842;SDS011;70255;53.686;10.778;2023-05-23T03:05:13;10.03;;;6.77;;
80842;SDS011;70255;53.686;10.778;2023-05-23T03:07:38;9.23;;;7.07;;
80842;SDS011;70255;53.686;10.778;2023-05-23T03:10:04;9.27;;;6.10;;
80842;SDS011;70255;53.686;10.778;2023-05-23T03:12:29;10.88;;;7.57;;
80842;SDS011;70255;53.686;10.778;2023-05-23T03:14:54;8.47;;;6.30;;
80842;SDS011;70255;53.686;10.778;2023-05-23T03:17:19;11.82;;;9.27;;
80842;SDS011;70255;53.686;10.778;2023-05-23T03:19:45;13.80;;;9.73;;
80842;SDS011;70255;53.686;10.778;2023-05-23T03:22:10;11.03;;;8.27;;
80842;SDS011;70255;53.686;10.778;2023-05-23T03:24:35;8.53;;;5.93;;
80842;SDS011;70255;53.686;10.778;2023-05-23T03:27:00;8.27;;;5.13;;
80842;SDS011;70255;53.686;10.778;2023-05-23T03:29:26;11.70;;;8.47;;
80842;SDS011;70255;53.686;10.778;2023-05-23T03:31:51;8.53;;;6.77;;
80842;SDS011;70255;53.686;10.778;2023-05-23T03:34:16;10.67;;;7.40;;
80842;SDS011;70255;53.686;10.778;2023-05-23T03:36:41;9.45;;;6.78;;
80842;SDS011;70255;53.686;10.778;2023-05-23T03:39:07;10.98;;;8.30;;
80842;SDS011;70255;53.686;10.778;2023-05-23T03:41:32;8.57;;;6.23;;
80842;SDS011;70255;53.686;10.778;2023-05-23T03:43:57;11.87;;;8.70;;
80842;SDS011;70255;53.686;10.778;2023-05-23T03:46:23;9.20;;;7.40;;
80842;SDS011;70255;53.686;10.778;2023-05-23T03:48:48;7.87;;;5.23;;
80842;SDS011;70255;53.686;10.778;2023-05-23T03:51:13;8.20;;;5.83;;
80842;SDS011;70255;53.686;10.778;2023-05-23T03:53:38;10.07;;;6.80;;
80842;SDS011;70255;53.686;10.778;2023-05-23T03:56:03;10.03;;;7.60;;
80842;SDS011;70255;53.686;10.778;2023-05-23T03:58:29;9.30;;;6.28;;
80842;SDS011;70255;53.686;10.778;2023-05-23T04:00:54;9.83;;;6.97;;
80842;SDS011;70255;53.686;10.778;2023-05-23T04:03:20;8.98;;;6.78;;
80842;SDS011;70255;53.686;10.778;2023-05-23T04:05:45;11.07;;;8.15;;
80842;SDS011;70255;53.686;10.778;2023-05-23T04:08:10;14.70;;;9.47;;
80842;SDS011;70255;53.686;10.778;2023-05-23T04:10:36;12.75;;;10.00;;
80842;SDS011;70255;53.686;10.778;2023-05-23T04:13:01;12.60;;;9.53;;
80842;SDS011;70255;53.686;10.778;2023-05-23T04:15:26;9.50;;;6.63;;
80842;SDS011;70255;53.686;10.778;2023-05-23T04:17:52;11.33;;;7.53;;
80842;SDS011;70255;53.686;10.778;2023-05-23T04:20:17;8.65;;;6.88;;
80842;SDS011;70255;53.686;10.778;2023-05-23T04:22:42;10.40;;;8.37;;
80842;SDS011;70255;53.686;10.778;2023-05-23T04:25:08;11.27;;;8.30;;
80842;SDS011;70255;53.686;10.778;2023-05-23T04:27:33;12.65;;;9.07;;
80842;SDS011;70255;53.686;10.778;2023-05-23T04:29:58;10.88;;;8.23;;
80842;SDS011;70255;53.686;10.778;2023-05-23T04:32:24;9.25;;;7.15;;
80842;SDS011;70255;53.686;10.778;2023-05-23T04:34:50;9.55;;;7.22;;
80842;SDS011;70255;53.686;10.778;2023-05-23T04:37:16;8.40;;;6.80;;
80842;SDS011;70255;53.686;10.778;2023-05-23T04:39:41;8.90;;;7.03;;
80842;SDS011;70255;53.686;10.778;2023-05-23T04:42:06;10.35;;;6.90;;
80842;SDS011;70255;53.686;10.778;2023-05-23T04:44:32;11.10;;;8.57;;
80842;SDS011;70255;53.686;10.778;2023-05-23T04:46:57;9.43;;;7.40;;
80842;SDS011;70255;53.686;10.778;2023-05-23T04:49:22;9.27;;;6.72;;
80842;SDS011;70255;53.686;10.778;2023-05-23T04:51:48;11.50;;;8.37;;
80842;SDS011;70255;53.686;10.778;2023-05-23T04:54:13;10.25;;;7.30;;
80842;SDS011;70255;53.686;10.778;2023-05-23T04:56:38;10.88;;;6.95;;
80842;SDS011;70255;53.686;10.778;2023-05-23T04:59:04;12.60;;;8.83;;
80842;SDS011;70255;53.686;10.778;2023-05-23T05:01:29;10.97;;;8.10;;
80842;SDS011;70255;53.686;10.778;2023-05-23T05:03:55;8.45;;;5.78;;
80842;SDS011;70255;53.686;10.778;2023-05-23T05:06:21;8.83;;;6.73;;
80842;SDS011;70255;53.686;10.778;2023-05-23T05:08:46;12.02;;;8.40;;
80842;SDS011;70255;53.686;10.778;2023-05-23T05:11:12;11.77;;;8.73;;
80842;SDS011;70255;53.686;10.778;2023-05-23T05:13:37;13.77;;;10.27;;
80842;SDS011;70255;53.686;10.778;2023-05-23T05:16:02;11.50;;;8.20;;
80842;SDS011;70255;53.686;10.778;2023-05-23T05:18:28;10.95;;;8.60;;
80842;SDS011;70255;53.686;10.778;2023-05-23T05:20:53;12.05;;;9.18;;
80842;SDS011;70255;53.686;10.778;2023-05-23T05:23:18;9.70;;;7.03;;
80842;SDS011;70255;53.686;10.778;2023-05-23T05:25:44;13.32;;;9.55;;
80842;SDS011;70255;53.686;10.778;2023-05-23T05:28:09;14.43;;;9.48;;
80842;SDS011;70255;53.686;10.778;2023-05-23T05:30:35;15.75;;;10.80;;
80842;SDS011;70255;53.686;10.778;2023-05-23T05:33:03;18.13;;;11.97;;
80842;SDS011;70255;53.686;10.778;2023-05-23T05:37:53;15.18;;;11.07;;
80842;SDS011;70255;53.686;10.778;2023-05-23T05:40:19;16.13;;;11.07;;
80842;SDS011;70255;53.686;10.778;2023-05-23T05:42:44;15.25;;;10.23;;
80842;SDS011;70255;53.686;10.778;2023-05-23T05:45:10;14.60;;;11.73;;
80842;SDS011;70255;53.686;10.778;2023-05-23T05:47:35;18.75;;;13.88;;
80842;SDS011;70255;53.686;10.778;2023-05-23T05:50:02;17.17;;;13.13;;
80842;SDS011;70255;53.686;10.778;2023-05-23T05:52:28;15.45;;;10.73;;
80842;SDS011;70255;53.686;10.778;2023-05-23T05:54:53;14.80;;;10.30;;
80842;SDS011;70255;53.686;10.778;2023-05-23T05:57:18;14.35;;;9.07;;
80842;SDS011;70255;53.686;10.778;2023-05-23T05:59:43;13.70;;;9.60;;
80842;SDS011;70255;53.686;10.778;2023-05-23T06:02:09;18.97;;;11.53;;
80842;SDS011;70255;53.686;10.778;2023-05-23T06:04:34;17.42;;;12.60;;
80842;SDS011;70255;53.686;10.778;2023-05-23T06:06:59;17.90;;;11.15;;
80842;SDS011;70255;53.686;10.778;2023-05-23T06:09:24;19.40;;;13.00;;
80842;SDS011;70255;53.686;10.778;2023-05-23T06:11:50;21.57;;;12.60;;
80842;SDS011;70255;53.686;10.778;2023-05-23T06:14:15;19.63;;;12.80;;
80842;SDS011;70255;53.686;10.778;2023-05-23T06:16:40;22.97;;;14.50;;
80842;SDS011;70255;53.686;10.778;2023-05-23T06:19:05;27.33;;;16.43;;
80842;SDS011;70255;53.686;10.778;2023-05-23T06:21:31;27.83;;;17.23;;
80842;SDS011;70255;53.686;10.778;2023-05-23T06:23:56;30.10;;;18.90;;
80842;SDS011;70255;53.686;10.778;2023-05-23T06:26:21;31.40;;;18.90;;
80842;SDS011;70255;53.686;10.778;2023-05-23T06:28:47;32.47;;;19.27;;
80842;SDS011;70255;53.686;10.778;2023-05-23T06:31:12;35.67;;;19.53;;
80842;SDS011;70255;53.686;10.778;2023-05-23T06:33:37;35.77;;;20.90;;
80842;SDS011;70255;53.686;10.778;2023-05-23T06:36:02;39.57;;;21.10;;
80842;SDS011;70255;53.686;10.778;2023-05-23T06:38:28;35.75;;;20.05;;
80842;SDS011;70255;53.686;10.778;2023-05-23T06:40:55;36.75;;;21.02;;
80842;SDS011;70255;53.686;10.778;2023-05-23T06:43:20;42.08;;;22.77;;
80842;SDS011;70255;53.686;10.778;2023-05-23T06:45:45;48.13;;;23.90;;
80842;SDS011;70255;53.686;10.778;2023-05-23T06:48:11;47.97;;;23.55;;
80842;SDS011;70255;53.686;10.778;2023-05-23T06:50:37;56.08;;;27.30;;
80842;SDS011;70255;53.686;10.778;2023-05-23T06:53:02;54.47;;;25.60;;
80842;SDS011;70255;53.686;10.778;2023-05-23T06:55:27;58.93;;;27.53;;
80842;SDS011;70255;53.686;10.778;2023-05-23T06:57:52;62.13;;;27.08;;
80842;SDS011;70255;53.686;10.778;2023-05-23T07:00:18;69.27;;;29.43;;
80842;SDS011;70255;53.686;10.778;2023-05-23T07:02:43;65.70;;;28.63;;
80842;SDS011;70255;53.686;10.778;2023-05-23T07:05:12;64.88;;;28.88;;
80842;SDS011;70255;53.686;10.778;2023-05-23T07:07:38;62.03;;;28.25;;
80842;SDS011;70255;53.686;10.778;2023-05-23T07:10:03;66.22;;;28.38;;
80842;SDS011;70255;53.686;10.778;2023-05-23T07:12:29;64.22;;;28.63;;
80842;SDS011;70255;53.686;10.778;2023-05-23T07:14:54;72.82;;;29.88;;
80842;SDS011;70255;53.686;10.778;2023-05-23T07:17:19;65.87;;;27.10;;
80842;SDS011;70255;53.686;10.778;2023-05-23T07:19:45;76.57;;;30.00;;
80842;SDS011;70255;53.686;10.778;2023-05-23T07:22:10;72.82;;;28.13;;
80842;SDS011;70255;53.686;10.778;2023-05-23T07:24:35;81.53;;;32.07;;
80842;SDS011;70255;53.686;10.778;2023-05-23T07:27:01;77.60;;;32.33;;
80842;SDS011;70255;53.686;10.778;2023-05-23T07:29:26;82.47;;;31.20;;
80842;SDS011;70255;53.686;10.778;2023-05-23T07:31:51;71.87;;;30.90;;
80842;SDS011;70255;53.686;10.778;2023-05-23T07:34:17;68.88;;;28.88;;
80842;SDS011;70255;53.686;10.778;2023-05-23T07:36:42;79.67;;;32.40;;
80842;SDS011;70255;53.686;10.778;2023-05-23T07:39:08;71.10;;;31.50;;
80842;SDS011;70255;53.686;10.778;2023-05-23T07:41:33;68.63;;;28.50;;
80842;SDS011;70255;53.686;10.778;2023-05-23T07:43:58;73.23;;;30.47;;
80842;SDS011;70255;53.686;10.778;2023-05-23T07:46:23;69.53;;;29.30;;
80842;SDS011;70255;53.686;10.778;2023-05-23T07:48:49;73.20;;;30.83;;
80842;SDS011;70255;53.686;10.778;2023-05-23T07:51:14;63.57;;;27.30;;
80842;SDS011;70255;53.686;10.778;2023-05-23T07:53:39;71.60;;;30.73;;
80842;SDS011;70255;53.686;10.778;2023-05-23T07:56:05;58.55;;;25.05;;
80842;SDS011;70255;53.686;10.778;2023-05-23T07:58:30;63.45;;;28.13;;
80842;SDS011;70255;53.686;10.778;2023-05-23T08:00:56;58.43;;;26.30;;
80842;SDS011;70255;53.686;10.778;2023-05-23T08:03:22;56.38;;;25.55;;
80842;SDS011;70255;53.686;10.778;2023-05-23T08:05:47;58.50;;;24.98;;
80842;SDS011;70255;53.686;10.778;2023-05-23T08:08:12;50.33;;;25.47;;
80842;SDS011;70255;53.686;10.778;2023-05-23T08:10:37;55.97;;;26.57;;
80842;SDS011;70255;53.686;10.778;2023-05-23T08:13:04;55.65;;;25.33;;
80842;SDS011;70255;53.686;10.778;2023-05-23T08:15:30;49.08;;;25.35;;
80842;SDS011;70255;53.686;10.778;2023-05-23T08:17:56;43.58;;;22.45;;
80842;SDS011;70255;53.686;10.778;2023-05-23T08:20:22;44.45;;;23.15;;
80842;SDS011;70255;53.686;10.778;2023-05-23T08:22:54;39.17;;;21.38;;
80842;SDS011;70255;53.686;10.778;2023-05-23T08:25:22;30.88;;;18.20;;
80842;SDS011;70255;53.686;10.778;2023-05-23T08:27:48;26.63;;;16.42;;
80842;SDS011;70255;53.686;10.778;2023-05-23T08:30:13;20.53;;;13.47;;
80842;SDS011;70255;53.686;10.778;2023-05-23T08:32:39;17.23;;;11.65;;
80842;SDS011;70255;53.686;10.778;2023-05-23T08:35:04;18.33;;;10.45;;
80842;SDS011;70255;53.686;10.778;2023-05-23T08:37:30;16.48;;;10.05;;
80842;SDS011;70255;53.686;10.778;2023-05-23T08:39:55;13.00;;;8.45;;
80842;SDS011;70255;53.686;10.778;2023-05-23T08:42:21;11.40;;;8.13;;
80842;SDS011;70255;53.686;10.778;2023-05-23T08:44:46;10.07;;;6.67;;
80842;SDS011;70255;53.686;10.778;2023-05-23T08:47:11;9.97;;;6.23;;
80842;SDS011;70255;53.686;10.778;2023-05-23T08:49:41;14.75;;;7.32;;
80842;SDS011;70255;53.686;10.778;2023-05-23T08:52:07;10.38;;;6.45;;
80842;SDS011;70255;53.686;10.778;2023-05-23T08:54:35;11.45;;;6.38;;
80842;SDS011;70255;53.686;10.778;2023-05-23T08:57:00;11.93;;;5.93;;
80842;SDS011;70255;53.686;10.778;2023-05-23T08:59:26;9.77;;;6.03;;
80842;SDS011;70255;53.686;10.778;2023-05-23T09:01:51;13.27;;;6.38;;
80842;SDS011;70255;53.686;10.778;2023-05-23T09:04:18;11.63;;;6.40;;
80842;SDS011;70255;53.686;10.778;2023-05-23T09:06:43;7.40;;;5.55;;
80842;SDS011;70255;53.686;10.778;2023-05-23T09:09:08;11.70;;;6.70;;
80842;SDS011;70255;53.686;10.778;2023-05-23T09:11:34;10.47;;;6.07;;
80842;SDS011;70255;53.686;10.778;2023-05-23T09:13:59;10.77;;;6.10;;
80842;SDS011;70255;53.686;10.778;2023-05-23T09:16:30;10.13;;;5.40;;
80842;SDS011;70255;53.686;10.778;2023-05-23T09:18:55;8.80;;;5.70;;
80842;SDS011;70255;53.686;10.778;2023-05-23T09:21:21;9.90;;;5.43;;
80842;SDS011;70255;53.686;10.778;2023-05-23T09:23:48;10.95;;;6.05;;
80842;SDS011;70255;53.686;10.778;2023-05-23T09:26:13;9.65;;;5.53;;
80842;SDS011;70255;53.686;10.778;2023-05-23T09:28:40;10.05;;;5.90;;
80842;SDS011;70255;53.686;10.778;2023-05-23T09:31:06;8.68;;;5.03;;
80842;SDS011;70255;53.686;10.778;2023-05-23T09:33:39;8.98;;;5.80;;
80842;SDS011;70255;53.686;10.778;2023-05-23T09:36:07;10.98;;;6.60;;
80842;SDS011;70255;53.686;10.778;2023-05-23T09:38:36;7.93;;;5.50;;
80842;SDS011;70255;53.686;10.778;2023-05-23T09:41:02;10.20;;;5.57;;
80842;SDS011;70255;53.686;10.778;2023-05-23T09:43:27;8.03;;;5.73;;
80842;SDS011;70255;53.686;10.778;2023-05-23T09:45:52;8.87;;;5.43;;
80842;SDS011;70255;53.686;10.778;2023-05-23T09:48:18;10.45;;;6.93;;
80842;SDS011;70255;53.686;10.778;2023-05-23T09:50:44;11.67;;;6.27;;
80842;SDS011;70255;53.686;10.778;2023-05-23T09:53:09;10.38;;;6.38;;
80842;SDS011;70255;53.686;10.778;2023-05-23T09:55:35;8.53;;;5.80;;
80842;SDS011;70255;53.686;10.778;2023-05-23T09:58:00;9.68;;;5.40;;
80842;SDS011;70255;53.686;10.778;2023-05-23T10:00:26;7.40;;;4.82;;
80842;SDS011;70255;53.686;10.778;2023-05-23T10:02:53;7.55;;;4.93;;
80842;SDS011;70255;53.686;10.778;2023-05-23T10:05:27;6.25;;;4.20;;
80842;SDS011;70255;53.686;10.778;2023-05-23T10:07:54;6.13;;;3.60;;
80842;SDS011;70255;53.686;10.778;2023-05-23T10:10:21;7.82;;;3.63;;
80842;SDS011;70255;53.686;10.778;2023-05-23T10:12:48;4.43;;;2.30;;
80842;SDS011;70255;53.686;10.778;2023-05-23T10:15:14;6.43;;;2.78;;
80842;SDS011;70255;53.686;10.778;2023-05-23T10:20:15;10.43;;;3.45;;
80842;SDS011;70255;53.686;10.778;2023-05-23T10:22:40;6.32;;;3.10;;
80842;SDS011;70255;53.686;10.778;2023-05-23T10:25:06;5.43;;;3.00;;
80842;SDS011;70255;53.686;10.778;2023-05-23T10:27:36;6.68;;;3.40;;
80842;SDS011;70255;53.686;10.778;2023-05-23T10:30:02;7.60;;;3.40;;
80842;SDS011;70255;53.686;10.778;2023-05-23T10:32:28;7.30;;;3.67;;
80842;SDS011;70255;53.686;10.778;2023-05-23T10:40:21;8.10;;;3.70;;
80842;SDS011;70255;53.686;10.778;2023-05-23T10:43:01;4.90;;;3.47;;
80842;SDS011;70255;53.686;10.778;2023-05-23T10:45:28;6.47;;;4.47;;
80842;SDS011;70255;53.686;10.778;2023-05-23T10:47:53;7.28;;;4.40;;
80842;SDS011;70255;53.686;10.778;2023-05-23T10:50:32;8.07;;;4.67;;
80842;SDS011;70255;53.686;10.778;2023-05-23T10:52:58;9.32;;;6.28;;
80842;SDS011;70255;53.686;10.778;2023-05-23T10:55:23;10.07;;;5.57;;
80842;SDS011;70255;53.686;10.778;2023-05-23T10:58:07;10.87;;;6.03;;
80842;SDS011;70255;53.686;10.778;2023-05-23T11:00:34;11.20;;;6.22;;
80842;SDS011;70255;53.686;10.778;2023-05-23T11:02:59;11.03;;;6.43;;
80842;SDS011;70255;53.686;10.778;2023-05-23T11:05:26;10.80;;;5.87;;
80842;SDS011;70255;53.686;10.778;2023-05-23T11:08:10;9.55;;;5.43;;
80842;SDS011;70255;53.686;10.778;2023-05-23T11:13:16;11.52;;;5.35;;
80842;SDS011;70255;53.686;10.778;2023-05-23T11:15:41;7.87;;;4.47;;
80842;SDS011;70255;53.686;10.778;2023-05-23T11:18:08;8.02;;;4.32;;
80842;SDS011;70255;53.686;10.778;2023-05-23T11:20:36;8.35;;;3.88;;
80842;SDS011;70255;53.686;10.778;2023-05-23T11:23:02;6.78;;;3.05;;
80842;SDS011;70255;53.686;10.778;2023-05-23T11:25:44;8.13;;;3.00;;
80842;SDS011;70255;53.686;10.778;2023-05-23T11:28:10;5.03;;;2.97;;
80842;SDS011;70255;53.686;10.778;2023-05-23T11:30:36;7.82;;;3.13;;
80842;SDS011;70255;53.686;10.778;2023-05-23T11:33:11;5.18;;;2.70;;
80842;SDS011;70255;53.686;10.778;2023-05-23T11:35:44;5.13;;;2.40;;
80842;SDS011;70255;53.686;10.778;2023-05-23T11:38:10;5.82;;;2.70;;
80842;SDS011;70255;53.686;10.778;2023-05-23T11:40:39;5.63;;;2.50;;
80842;SDS011;70255;53.686;10.778;2023-05-23T11:43:05;5.15;;;2.30;;
80842;SDS011;70255;53.686;10.778;2023-05-23T11:45:31;3.85;;;2.05;;
80842;SDS011;70255;53.686;10.778;2023-05-23T11:47:57;3.05;;;1.70;;
80842;SDS011;70255;53.686;10.778;2023-05-23T11:50:22;5.80;;;2.30;;
80842;SDS011;70255;53.686;10.778;2023-05-23T11:52:48;4.20;;;1.83;;
80842;SDS011;70255;53.686;10.778;2023-05-23T11:55:20;4.35;;;2.15;;
80842;SDS011;70255;53.686;10.778;2023-05-23T11:57:46;7.93;;;2.50;;
80842;SDS011;70255;53.686;10.778;2023-05-23T12:00:11;6.57;;;2.50;;
80842;SDS011;70255;53.686;10.778;2023-05-23T12:02:37;8.75;;;3.42;;
80842;SDS011;70255;53.686;10.778;2023-05-23T12:05:10;6.60;;;3.30;;
80842;SDS011;70255;53.686;10.778;2023-05-23T12:07:39;8.75;;;3.80;;
80842;SDS011;70255;53.686;10.778;2023-05-23T12:10:04;10.20;;;4.65;;
80842;SDS011;70255;53.686;10.778;2023-05-23T12:12:30;11.10;;;4.70;;
80842;SDS011;70255;53.686;10.778;2023-05-23T12:14:56;8.93;;;4.63;;
80842;SDS011;70255;53.686;10.778;2023-05-23T12:17:21;9.52;;;4.47;;
80842;SDS011;70255;53.686;10.778;2023-05-23T12:19:46;8.57;;;4.00;;
80842;SDS011;70255;53.686;10.778;2023-05-23T12:22:12;8.97;;;4.30;;
80842;SDS011;70255;53.686;10.778;2023-05-23T12:24:43;7.45;;;4.05;;
80842;SDS011;70255;53.686;10.778;2023-05-23T12:27:08;12.07;;;4.45;;
80842;SDS011;70255;53.686;10.778;2023-05-23T12:29:34;7.38;;;3.80;;
80842;SDS011;70255;53.686;10.778;2023-05-23T12:32:02;9.00;;;4.45;;
80842;SDS011;70255;53.686;10.778;2023-05-23T12:34:28;8.60;;;4.07;;
80842;SDS011;70255;53.686;10.778;2023-05-23T12:36:56;7.35;;;4.07;;
80842;SDS011;70255;53.686;10.778;2023-05-23T12:39:24;12.07;;;3.70;;
80842;SDS011;70255;53.686;10.778;2023-05-23T12:41:51;10.73;;;3.05;;
80842;SDS011;70255;53.686;10.778;2023-05-23T12:44:16;8.27;;;3.20;;
80842;SDS011;70255;53.686;10.778;2023-05-23T12:46:41;7.07;;;2.58;;
80842;SDS011;70255;53.686;10.778;2023-05-23T12:49:07;6.85;;;3.00;;
80842;SDS011;70255;53.686;10.778;2023-05-23T12:51:32;6.20;;;2.77;;
80842;SDS011;70255;53.686;10.778;2023-05-23T12:53:58;7.00;;;2.93;;
80842;SDS011;70255;53.686;10.778;2023-05-23T12:56:23;12.15;;;3.05;;
80842;SDS011;70255;53.686;10.778;2023-05-23T12:58:48;10.70;;;2.70;;
80842;SDS011;70255;53.686;10.778;2023-05-23T13:01:13;8.43;;;2.58;;
80842;SDS011;70255;53.686;10.778;2023-05-23T13:03:39;10.33;;;3.10;;
80842;SDS011;70255;53.686;10.778;2023-05-23T13:06:04;9.57;;;3.20;;
80842;SDS011;70255;53.686;10.778;2023-05-23T13:08:30;7.75;;;2.85;;
80842;SDS011;70255;53.686;10.778;2023-05-23T13:10:56;9.52;;;2.53;;
80842;SDS011;70255;53.686;10.778;2023-05-23T13:13:21;5.07;;;2.00;;
80842;SDS011;70255;53.686;10.778;2023-05-23T13:15:46;9.50;;;2.60;;
80842;SDS011;70255;53.686;10.778;2023-05-23T13:18:12;6.45;;;2.30;;
80842;SDS011;70255;53.686;10.778;2023-05-23T13:20:37;7.37;;;2.60;;
80842;SDS011;70255;53.686;10.778;2023-05-23T13:23:02;6.17;;;2.37;;
80842;SDS011;70255;53.686;10.778;2023-05-23T13:25:28;9.00;;;2.97;;
80842;SDS011;70255;53.686;10.778;2023-05-23T13:27:53;6.35;;;2.70;;
80842;SDS011;70255;53.686;10.778;2023-05-23T13:30:19;9.52;;;2.95;;
80842;SDS011;70255;53.686;10.778;2023-05-23T13:32:45;7.78;;;2.90;;
80842;SDS011;70255;53.686;10.778;2023-05-23T13:35:10;5.78;;;2.28;;
80842;SDS011;70255;53.686;10.778;2023-05-23T13:37:35;9.07;;;2.30;;
80842;SDS011;70255;53.686;10.778;2023-05-23T13:40:01;7.65;;;2.53;;
80842;SDS011;70255;53.686;10.778;2023-05-23T13:42:27;11.45;;;2.70;;
80842;SDS011;70255;53.686;10.778;2023-05-23T13:44:52;7.57;;;2.30;;
80842;SDS011;70255;53.686;10.778;2023-05-23T13:47:17;11.63;;;2.90;;
80842;SDS011;70255;53.686;10.778;2023-05-23T13:49:43;10.93;;;3.30;;
80842;SDS011;70255;53.686;10.778;2023-05-23T13:52:08;10.50;;;2.63;;
80842;SDS011;70255;53.686;10.778;2023-05-23T13:54:34;7.68;;;2.58;;
80842;SDS011;70255;53.686;10.778;2023-05-23T13:56:59;11.80;;;2.92;;
80842;SDS011;70255;53.686;10.778;2023-05-23T13:59:25;7.63;;;2.30;;
80842;SDS011;70255;53.686;10.778;2023-05-23T14:01:51;7.32;;;2.55;;
80842;SDS011;70255;53.686;10.778;2023-05-23T14:04:16;7.53;;;2.30;;
80842;SDS011;70255;53.686;10.778;2023-05-23T14:06:42;8.35;;;2.45;;
80842;SDS011;70255;53.686;10.778;2023-05-23T14:09:07;6.90;;;2.23;;
80842;SDS011;70255;53.686;10.778;2023-05-23T14:11:33;7.32;;;2.38;;
80842;SDS011;70255;53.686;10.778;2023-05-23T14:13:59;10.40;;;3.10;;
80842;SDS011;70255;53.686;10.778;2023-05-23T14:16:24;9.03;;;2.70;;
80842;SDS011;70255;53.686;10.778;2023-05-23T14:18:49;11.50;;;3.30;;
80842;SDS011;70255;53.686;10.778;2023-05-23T14:21:14;12.00;;;2.47;;
80842;SDS011;70255;53.686;10.778;2023-05-23T14:23:40;8.73;;;2.10;;
80842;SDS011;70255;53.686;10.778;2023-05-23T14:26:05;10.68;;;3.45;;
80842;SDS011;70255;53.686;10.778;2023-05-23T14:28:30;8.27;;;2.83;;
80842;SDS011;70255;53.686;10.778;2023-05-23T14:30:56;9.67;;;2.40;;
80842;SDS011;70255;53.686;10.778;2023-05-23T14:33:21;7.20;;;2.67;;
80842;SDS011;70255;53.686;10.778;2023-05-23T14:35:46;8.50;;;2.73;;
80842;SDS011;70255;53.686;10.778;2023-05-23T14:38:12;9.10;;;3.03;;
80842;SDS011;70255;53.686;10.778;2023-05-23T14:40:37;13.10;;;2.90;;